Time;durP1;ratioP1;P1;durP2;ratioP2;P2;SDS_P1;SDS_P2;PMS_P1;PMS_P2;Temp;Humidity;BMP_temperature;BMP_pressure;BME280_temperature;BME280_humidity;BME280_pressure;Samples;Min_cycle;Max_cycle;Signal;HPM_P1;HPM_P2
2022/04/04 00:01:17;;;;;;;8.90;5.50;;;2.80;99.90;;;;;;5028095;28;20446;-79
2022/04/04 00:03:43;;;;;;;10.30;6.60;;;2.80;99.90;;;;;;5022352;28;20506;-82
2022/04/04 00:06:10;;;;;;;6.00;4.90;;;2.80;99.90;;;;;;5015541;28;20525;-82
2022/04/04 00:08:38;;;;;;;7.30;5.00;;;2.80;99.90;;;;;;5014415;28;20486;-82
2022/04/04 00:11:06;;;;;;;8.40;5.27;;;2.80;99.90;;;;;;5014955;28;20460;-81
2022/04/04 00:13:33;;;;;;;8.57;5.00;;;2.80;99.90;;;;;;5014745;28;20982;-81
2022/04/04 00:16:00;;;;;;;8.03;6.60;;;2.80;99.90;;;;;;5015637;28;20550;-82
2022/04/04 00:18:27;;;;;;;7.73;5.60;;;2.80;99.90;;;;;;5015510;28;20484;-81
2022/04/04 00:20:54;;;;;;;6.73;6.03;;;2.70;99.90;;;;;;5014607;28;20500;-81
2022/04/04 00:23:21;;;;;;;8.90;6.80;;;2.70;99.90;;;;;;5014236;28;20493;-81
2022/04/04 00:25:49;;;;;;;6.93;5.97;;;2.70;99.90;;;;;;5015545;28;20472;-81
2022/04/04 00:28:16;;;;;;;7.80;7.00;;;2.70;99.90;;;;;;5016468;28;20512;-81
2022/04/04 00:30:43;;;;;;;7.07;6.00;;;2.60;99.90;;;;;;5019768;28;20464;-81
2022/04/04 00:33:10;;;;;;;6.93;5.77;;;2.60;99.90;;;;;;5018083;28;20458;-81
2022/04/04 00:35:38;;;;;;;8.13;6.77;;;2.60;99.90;;;;;;5018986;28;20453;-82
2022/04/04 00:38:06;;;;;;;9.90;7.40;;;2.50;99.90;;;;;;5018694;28;20463;-81
2022/04/04 00:40:33;;;;;;;13.13;7.07;;;2.60;99.90;;;;;;5019221;28;20432;-82
2022/04/04 00:43:01;;;;;;;8.43;6.07;;;2.60;99.90;;;;;;5017869;28;20485;-79
2022/04/04 00:45:28;;;;;;;11.40;7.90;;;2.60;99.90;;;;;;5019043;28;20604;-81
2022/04/04 00:47:55;;;;;;;10.90;6.17;;;2.60;99.90;;;;;;5019861;28;20464;-81
2022/04/04 00:50:22;;;;;;;8.97;7.27;;;2.60;99.90;;;;;;5017504;28;21009;-81
2022/04/04 00:52:50;;;;;;;7.83;6.80;;;2.60;99.90;;;;;;5002337;28;20490;-79
2022/04/04 00:55:16;;;;;;;9.13;7.77;;;2.60;99.90;;;;;;5018714;28;20435;-80
2022/04/04 00:57:43;;;;;;;10.57;7.20;;;2.60;99.90;;;;;;5017458;28;20450;-81
2022/04/04 01:00:13;;;;;;;8.63;7.10;;;2.60;99.90;;;;;;5017904;28;20853;-81
2022/04/04 01:02:40;;;;;;;8.33;7.03;;;2.70;99.90;;;;;;5019237;28;20490;-80
2022/04/04 01:05:09;;;;;;;10.10;7.57;;;2.70;99.90;;;;;;5018011;28;20450;-81
2022/04/04 01:07:38;;;;;;;11.93;7.30;;;2.70;99.90;;;;;;5019382;28;20446;-81
2022/04/04 01:10:06;;;;;;;9.90;7.37;;;2.60;99.90;;;;;;5019703;28;20480;-80
2022/04/04 01:12:34;;;;;;;8.00;7.20;;;2.70;99.90;;;;;;5018950;28;20552;-81
2022/04/04 01:15:01;;;;;;;8.63;7.20;;;2.70;99.90;;;;;;5016854;28;20458;-79
2022/04/04 01:17:30;;;;;;;9.67;7.53;;;2.70;99.90;;;;;;5017798;28;20463;-80
2022/04/04 01:19:57;;;;;;;11.07;7.50;;;2.80;99.90;;;;;;5017709;28;20544;-81
2022/04/04 01:22:24;;;;;;;8.30;7.10;;;2.80;99.90;;;;;;5018725;28;20450;-81
2022/04/04 01:24:53;;;;;;;8.30;6.63;;;2.80;99.90;;;;;;5019032;28;20481;-81
2022/04/04 01:27:20;;;;;;;9.17;7.50;;;2.80;99.90;;;;;;5018990;28;20486;-81
2022/04/04 01:29:47;;;;;;;8.27;7.40;;;2.80;99.90;;;;;;5018594;28;20539;-81
2022/04/04 01:32:14;;;;;;;9.60;8.40;;;2.80;99.90;;;;;;5018304;28;20458;-81
2022/04/04 01:34:40;;;;;;;7.20;6.07;;;2.80;99.90;;;;;;5017955;28;20458;-81
2022/04/04 01:37:08;;;;;;;10.37;8.47;;;2.80;99.90;;;;;;5018141;28;20450;-80
2022/04/04 01:39:35;;;;;;;9.30;7.40;;;2.80;99.90;;;;;;5018347;28;20474;-81
2022/04/04 01:42:04;;;;;;;9.30;7.43;;;2.80;99.90;;;;;;5018059;28;20458;-80
2022/04/04 01:44:30;;;;;;;9.90;8.23;;;2.80;99.90;;;;;;5018351;28;20507;-81
2022/04/04 01:46:58;;;;;;;9.60;8.00;;;2.70;99.90;;;;;;5018882;28;20459;-81
2022/04/04 01:49:24;;;;;;;9.90;7.07;;;2.70;99.90;;;;;;5019168;28;20584;-80
2022/04/04 01:51:52;;;;;;;8.07;6.50;;;2.70;99.90;;;;;;5016426;28;20457;-80
2022/04/04 01:54:18;;;;;;;8.23;7.33;;;2.70;99.90;;;;;;5018374;28;20841;-81
2022/04/04 01:56:45;;;;;;;8.03;6.80;;;2.70;99.90;;;;;;5020227;28;20457;-81
2022/04/04 01:59:13;;;;;;;8.33;6.50;;;2.70;99.90;;;;;;5018717;28;20475;-81
2022/04/04 02:01:41;;;;;;;9.60;6.97;;;2.70;99.90;;;;;;5019456;28;20440;-81
2022/04/04 02:04:10;;;;;;;9.27;7.77;;;2.70;99.90;;;;;;5030490;28;20474;-81
2022/04/04 02:06:37;;;;;;;9.07;7.03;;;2.60;99.90;;;;;;5032472;28;20446;-77
2022/04/04 02:09:04;;;;;;;10.40;7.10;;;2.60;99.90;;;;;;5020949;28;20482;-78
2022/04/04 02:11:31;;;;;;;10.47;6.80;;;2.60;99.90;;;;;;5022663;28;20457;-78
2022/04/04 02:13:58;;;;;;;8.40;6.67;;;2.70;99.90;;;;;;5026493;28;20511;-79
2022/04/04 02:16:27;;;;;;;9.10;6.83;;;2.60;99.90;;;;;;5028476;28;20471;-78
2022/04/04 02:18:53;;;;;;;9.83;6.83;;;2.60;99.90;;;;;;5030401;28;21004;-79
2022/04/04 02:21:20;;;;;;;8.10;6.63;;;2.60;99.90;;;;;;5029319;28;20464;-80
2022/04/04 02:23:48;;;;;;;7.63;6.30;;;2.60;99.90;;;;;;5028565;28;20579;-80
2022/04/04 02:26:15;;;;;;;9.17;6.50;;;2.60;99.90;;;;;;5028395;28;20526;-79
2022/04/04 02:28:41;;;;;;;7.83;6.40;;;2.50;99.90;;;;;;5028953;28;20474;-79
2022/04/04 02:31:08;;;;;;;9.57;7.33;;;2.50;99.90;;;;;;5029248;28;20466;-80
2022/04/04 02:33:37;;;;;;;11.20;6.97;;;2.60;99.90;;;;;;5024015;28;20452;-80
2022/04/04 02:36:04;;;;;;;8.90;6.73;;;2.70;99.90;;;;;;4999651;28;20454;-80
2022/04/04 02:38:31;;;;;;;10.13;6.47;;;2.70;99.90;;;;;;4999506;28;21046;-80
2022/04/04 02:40:58;;;;;;;9.80;6.23;;;2.80;99.90;;;;;;5018301;28;20943;-80
2022/04/04 02:43:26;;;;;;;6.60;5.57;;;2.90;99.90;;;;;;5018826;28;20485;-81
2022/04/04 02:45:52;;;;;;;6.10;5.20;;;3.00;99.90;;;;;;5019882;28;20458;-80
2022/04/04 02:48:20;;;;;;;9.00;5.70;;;3.00;99.90;;;;;;5019192;28;20469;-80
2022/04/04 02:50:49;;;;;;;8.17;5.70;;;3.00;99.90;;;;;;5019291;28;20454;-80
2022/04/04 02:53:17;;;;;;;11.30;6.27;;;3.10;99.90;;;;;;5017665;28;21203;-80
2022/04/04 02:58:28;;;;;;;8.13;6.60;;;3.00;99.90;;;;;;5018834;28;20524;-80
2022/04/04 03:00:55;;;;;;;9.77;6.13;;;3.10;99.90;;;;;;5018595;28;20466;-80
2022/04/04 03:03:23;;;;;;;10.40;6.60;;;3.20;99.90;;;;;;5017346;28;20478;-80
2022/04/04 03:05:52;;;;;;;10.00;6.17;;;3.20;99.90;;;;;;5018938;28;20464;-80
2022/04/04 03:08:18;;;;;;;9.57;6.30;;;3.20;99.90;;;;;;5019938;28;20445;-81
2022/04/04 03:10:46;;;;;;;8.73;7.10;;;3.30;99.90;;;;;;5018914;28;20455;-81
2022/04/04 03:13:12;;;;;;;6.80;6.00;;;3.40;99.90;;;;;;5018417;28;20458;-80
2022/04/04 03:15:39;;;;;;;9.40;6.93;;;3.40;99.90;;;;;;5018784;28;20541;-80
2022/04/04 03:18:07;;;;;;;12.00;7.67;;;3.40;99.90;;;;;;5018464;28;20874;-80
2022/04/04 03:20:35;;;;;;;12.33;7.40;;;3.40;99.90;;;;;;5019062;28;20462;-81
2022/04/04 03:23:03;;;;;;;10.60;6.70;;;3.40;99.90;;;;;;5018265;28;20462;-80
2022/04/04 03:25:30;;;;;;;11.57;7.33;;;3.40;99.90;;;;;;5019104;28;20950;-80
2022/04/04 03:27:58;;;;;;;8.87;6.50;;;3.40;99.90;;;;;;5018859;28;20453;-80
2022/04/04 03:30:26;;;;;;;10.93;7.23;;;3.40;99.90;;;;;;5019007;28;20476;-80
2022/04/04 03:32:57;;;;;;;10.97;6.67;;;3.40;99.90;;;;;;5018214;28;20446;-80
2022/04/04 03:35:25;;;;;;;10.80;5.70;;;3.50;99.90;;;;;;5018257;28;20487;-80
2022/04/04 03:37:53;;;;;;;8.90;7.00;;;3.50;99.90;;;;;;5018707;28;20460;-79
2022/04/04 03:40:22;;;;;;;10.23;5.77;;;3.50;99.90;;;;;;5018283;28;20475;-81
2022/04/04 03:42:51;;;;;;;9.50;6.10;;;3.50;99.90;;;;;;5017984;28;20820;-81
2022/04/04 03:45:19;;;;;;;6.60;5.23;;;3.40;99.90;;;;;;5017941;28;20863;-80
2022/04/04 03:47:46;;;;;;;9.03;5.93;;;3.40;99.90;;;;;;5018803;28;20463;-81
2022/04/04 03:50:14;;;;;;;9.63;7.00;;;3.40;99.90;;;;;;5019361;28;20501;-80
2022/04/04 03:52:41;;;;;;;8.40;5.80;;;3.40;99.90;;;;;;5018358;28;20453;-80
2022/04/04 03:55:09;;;;;;;9.43;5.30;;;3.30;99.90;;;;;;5015895;28;20538;-81
2022/04/04 03:57:37;;;;;;;9.00;5.97;;;3.30;99.90;;;;;;5018867;28;20433;-81
2022/04/04 04:00:06;;;;;;;7.00;5.60;;;3.30;99.90;;;;;;5019093;28;20473;-80
2022/04/04 04:02:33;;;;;;;7.43;5.17;;;3.30;99.90;;;;;;5019237;28;20458;-81
2022/04/04 04:05:00;;;;;;;7.20;4.93;;;3.30;99.90;;;;;;5021800;28;20481;-81
2022/04/04 04:07:26;;;;;;;7.47;5.30;;;3.30;99.90;;;;;;5022575;28;20446;-81
2022/04/04 04:09:54;;;;;;;10.03;5.77;;;3.30;99.90;;;;;;5023719;28;20541;-81
2022/04/04 04:12:21;;;;;;;14.93;6.93;;;3.40;99.90;;;;;;5029978;28;20453;-81
2022/04/04 04:14:51;;;;;;;7.57;4.97;;;3.40;99.90;;;;;;5021644;28;20889;-80
2022/04/04 04:17:18;;;;;;;17.37;6.20;;;3.40;99.90;;;;;;5021675;28;20448;-81
2022/04/04 04:22:32;;;;;;;7.40;5.30;;;3.40;99.90;;;;;;5002706;28;20441;-79
2022/04/04 04:25:00;;;;;;;14.37;6.07;;;3.40;99.90;;;;;;5019292;28;20492;-79
2022/04/04 04:27:27;;;;;;;9.27;6.17;;;3.40;99.90;;;;;;5020866;28;21137;-79
2022/04/04 04:29:55;;;;;;;10.20;7.30;;;3.40;99.90;;;;;;5020419;28;20490;-80
2022/04/04 04:32:22;;;;;;;9.00;6.17;;;3.50;99.90;;;;;;5027902;28;20458;-78
2022/04/04 04:34:50;;;;;;;9.60;5.50;;;3.50;99.90;;;;;;5021204;28;20473;-79
2022/04/04 04:37:17;;;;;;;8.33;6.17;;;3.50;99.90;;;;;;5020764;28;20459;-79
2022/04/04 04:39:44;;;;;;;9.33;5.93;;;3.50;99.90;;;;;;5019161;28;20566;-79
2022/04/04 04:42:11;;;;;;;7.90;5.80;;;3.50;99.90;;;;;;5019779;28;20453;-80
2022/04/04 04:44:38;;;;;;;13.73;6.80;;;3.50;99.90;;;;;;5018482;28;20485;-79
2022/04/04 04:47:07;;;;;;;7.23;5.97;;;3.50;99.90;;;;;;5018583;28;20460;-79
2022/04/04 04:49:34;;;;;;;9.67;6.17;;;3.50;99.90;;;;;;5019192;28;20504;-79
2022/04/04 04:52:01;;;;;;;9.07;6.27;;;3.50;99.90;;;;;;5015485;28;20458;-75
2022/04/04 04:54:30;;;;;;;10.30;6.63;;;3.40;99.90;;;;;;5012190;28;20450;-77
2022/04/04 04:56:56;;;;;;;11.20;7.47;;;3.40;99.90;;;;;;5014200;28;20508;-78
2022/04/04 04:59:23;;;;;;;12.07;7.20;;;3.40;99.90;;;;;;5014558;28;20469;-77
2022/04/04 05:01:51;;;;;;;9.40;7.40;;;3.40;99.90;;;;;;5014031;28;20458;-76
2022/04/04 05:04:19;;;;;;;9.60;7.10;;;3.40;99.90;;;;;;5013634;28;20521;-77
2022/04/04 05:06:48;;;;;;;9.70;7.00;;;3.40;99.90;;;;;;5014247;28;20458;-76
2022/04/04 05:09:16;;;;;;;10.63;7.40;;;3.40;99.90;;;;;;5016412;28;21010;-78
2022/04/04 05:11:42;;;;;;;14.03;8.43;;;3.50;99.90;;;;;;5018060;28;20517;-78
2022/04/04 05:14:15;;;;;;;9.87;7.70;;;3.40;99.90;;;;;;5019752;28;20525;-79
2022/04/04 05:16:42;;;;;;;10.10;7.30;;;3.40;99.90;;;;;;5022966;28;20454;-79
2022/04/04 05:19:09;;;;;;;9.90;7.30;;;3.40;99.90;;;;;;5023199;28;20509;-79
2022/04/04 05:21:38;;;;;;;12.27;8.43;;;3.40;99.90;;;;;;5021698;28;20468;-78
2022/04/04 05:24:06;;;;;;;13.13;7.77;;;3.40;99.90;;;;;;5021281;28;20866;-79
2022/04/04 05:26:33;;;;;;;11.47;7.53;;;3.40;99.90;;;;;;5021799;28;20449;-78
2022/04/04 05:29:00;;;;;;;10.80;7.53;;;3.50;99.90;;;;;;5022304;28;20533;-79
2022/04/04 05:31:27;;;;;;;9.10;6.60;;;3.50;99.90;;;;;;5020046;28;20464;-78
2022/04/04 05:33:55;;;;;;;11.47;8.40;;;3.50;99.90;;;;;;5019581;28;20534;-79
2022/04/04 05:36:21;;;;;;;11.20;7.37;;;3.50;99.90;;;;;;5020774;28;20458;-79
2022/04/04 05:38:50;;;;;;;15.80;7.43;;;3.50;99.90;;;;;;5021169;28;20469;-78
2022/04/04 05:41:18;;;;;;;9.47;6.60;;;3.60;99.90;;;;;;5020977;28;20449;-79
2022/04/04 05:43:47;;;;;;;11.37;7.00;;;3.70;99.90;;;;;;5020345;28;20442;-79
2022/04/04 05:46:14;;;;;;;9.50;7.40;;;3.80;99.90;;;;;;5025930;28;20462;-78
2022/04/04 05:48:41;;;;;;;10.73;6.60;;;3.80;99.90;;;;;;5024075;28;20473;-79
2022/04/04 05:51:08;;;;;;;16.77;7.30;;;3.90;99.90;;;;;;5026659;28;20442;-79
2022/04/04 05:53:35;;;;;;;12.13;7.33;;;3.90;99.90;;;;;;5023477;28;20530;-79
2022/04/04 05:56:04;;;;;;;10.13;6.60;;;4.00;99.90;;;;;;5023876;28;20802;-79
2022/04/04 05:58:30;;;;;;;13.93;7.30;;;4.00;99.90;;;;;;5024564;28;20553;-80
2022/04/04 06:00:58;;;;;;;14.23;6.50;;;4.10;99.90;;;;;;5026701;28;20529;-79
2022/04/04 06:03:24;;;;;;;9.47;6.30;;;4.10;99.90;;;;;;5022598;28;20514;-80
2022/04/04 06:05:51;;;;;;;12.30;7.20;;;4.20;99.90;;;;;;5022614;28;20490;-80
2022/04/04 06:08:18;;;;;;;13.87;6.50;;;4.30;99.90;;;;;;5021422;28;20454;-79
2022/04/04 06:10:46;;;;;;;10.87;6.53;;;4.30;99.90;;;;;;5023057;28;20450;-80
2022/04/04 06:13:15;;;;;;;11.87;7.70;;;4.40;99.90;;;;;;5023224;28;20460;-78
2022/04/04 06:15:43;;;;;;;9.43;6.17;;;4.40;99.90;;;;;;5022709;28;20457;-80
2022/04/04 06:18:15;;;;;;;10.43;6.37;;;4.50;99.90;;;;;;5024858;28;20499;-82
2022/04/04 06:20:52;;;;;;;10.03;6.13;;;4.50;99.90;;;;;;5031541;28;20455;-80
2022/04/04 06:23:20;;;;;;;9.07;6.20;;;4.70;99.90;;;;;;5029236;28;20780;-79
2022/04/04 06:25:49;;;;;;;7.70;5.53;;;4.70;99.90;;;;;;5031475;28;20960;-81
2022/04/04 06:28:17;;;;;;;9.53;7.00;;;4.70;99.90;;;;;;5033250;28;21112;-80
2022/04/04 06:30:44;;;;;;;22.90;11.70;;;4.90;99.90;;;;;;5028793;28;21014;-80
2022/04/04 06:33:11;;;;;;;10.13;6.53;;;4.90;99.90;;;;;;5033664;28;20817;-80
2022/04/04 06:35:38;;;;;;;11.10;5.90;;;5.00;99.90;;;;;;5030584;28;20528;-80
2022/04/04 06:38:05;;;;;;;13.20;6.93;;;5.00;99.90;;;;;;5031713;28;20469;-81
2022/04/04 06:40:31;;;;;;;9.90;5.90;;;5.00;99.90;;;;;;5019141;28;20492;-79
2022/04/04 06:42:59;;;;;;;9.83;6.10;;;5.00;99.90;;;;;;5024962;28;20494;-78
2022/04/04 06:45:27;;;;;;;9.10;5.70;;;5.00;99.90;;;;;;5034674;28;20490;-80
2022/04/04 06:47:54;;;;;;;6.87;5.03;;;5.10;99.90;;;;;;5024858;28;20462;-80
2022/04/04 06:50:23;;;;;;;10.43;5.47;;;5.20;99.90;;;;;;5023126;28;20566;-80
2022/04/04 06:52:52;;;;;;;10.80;6.00;;;5.10;99.90;;;;;;5026445;28;20459;-78
2022/04/04 06:55:19;;;;;;;8.30;5.23;;;5.10;99.90;;;;;;5024394;28;20452;-79
2022/04/04 06:57:46;;;;;;;7.10;4.67;;;5.30;99.90;;;;;;5023436;28;20455;-79
2022/04/04 07:00:15;;;;;;;10.77;6.00;;;5.50;99.90;;;;;;5019257;28;20483;-80
2022/04/04 07:02:45;;;;;;;10.20;6.23;;;5.80;99.90;;;;;;5020228;28;20470;-79
2022/04/04 07:05:12;;;;;;;8.33;5.70;;;6.00;99.90;;;;;;5012756;28;20485;-79
2022/04/04 07:07:38;;;;;;;8.07;5.30;;;6.10;99.90;;;;;;5028202;28;20509;-79
2022/04/04 07:10:06;;;;;;;8.50;5.40;;;6.10;99.90;;;;;;5016695;28;20506;-80
2022/04/04 07:12:39;;;;;;;15.43;6.40;;;6.20;99.90;;;;;;5015913;28;20530;-79
2022/04/04 07:15:08;;;;;;;11.13;5.43;;;6.00;99.90;;;;;;5018349;28;20450;-79
2022/04/04 07:17:39;;;;;;;9.27;5.53;;;6.00;99.90;;;;;;5022172;28;20449;-79
2022/04/04 07:20:09;;;;;;;10.43;6.33;;;6.20;99.90;;;;;;5016288;28;20554;-80
2022/04/04 07:22:36;;;;;;;9.60;6.63;;;6.30;99.90;;;;;;5020791;28;20460;-79
2022/04/04 07:25:08;;;;;;;8.93;5.20;;;6.40;99.90;;;;;;5020712;28;20484;-78
2022/04/04 07:27:35;;;;;;;9.00;5.70;;;6.40;99.90;;;;;;5022414;28;20452;-80
2022/04/04 07:30:04;;;;;;;9.60;6.37;;;6.40;99.90;;;;;;5024103;28;20519;-79
2022/04/04 07:32:31;;;;;;;8.73;6.10;;;6.40;99.90;;;;;;5024804;28;20467;-79
2022/04/04 07:34:57;;;;;;;8.67;6.60;;;6.60;99.90;;;;;;5024914;28;20457;-78
2022/04/04 07:37:27;;;;;;;9.67;6.10;;;6.70;99.90;;;;;;5027060;28;20525;-79
2022/04/04 07:39:54;;;;;;;9.77;5.53;;;6.90;99.90;;;;;;5018913;28;20483;-78
2022/04/04 07:42:21;;;;;;;9.80;5.50;;;6.90;99.90;;;;;;5039862;28;20451;-80
2022/04/04 07:44:47;;;;;;;8.20;5.90;;;6.90;99.90;;;;;;5039097;28;20491;-78
2022/04/04 07:47:14;;;;;;;8.00;5.70;;;7.10;99.90;;;;;;5038528;28;20452;-78
2022/04/04 07:49:41;;;;;;;6.70;5.30;;;7.20;99.90;;;;;;5018132;28;21048;-81
2022/04/04 07:52:08;;;;;;;9.43;6.40;;;7.30;99.90;;;;;;5018391;28;20819;-77
2022/04/04 07:54:36;;;;;;;8.07;5.50;;;7.40;99.90;;;;;;5018359;28;20514;-78
2022/04/04 07:57:03;;;;;;;7.27;5.03;;;7.60;99.90;;;;;;5013227;28;20934;-79
2022/04/04 07:59:30;;;;;;;6.77;5.13;;;7.90;99.90;;;;;;5016281;28;20477;-79
2022/04/04 08:01:57;;;;;;;11.47;5.50;;;7.70;99.90;;;;;;5018052;28;20471;-80
2022/04/04 08:04:23;;;;;;;9.93;4.93;;;7.50;99.90;;;;;;5017663;28;20468;-80
2022/04/04 08:06:50;;;;;;;10.47;6.70;;;7.20;99.90;;;;;;5018174;28;20504;-79
2022/04/04 08:09:17;;;;;;;9.90;4.90;;;7.40;99.90;;;;;;5012405;28;20472;-79
2022/04/04 08:11:45;;;;;;;7.70;5.17;;;7.20;99.90;;;;;;5017484;28;20480;-79
2022/04/04 08:14:12;;;;;;;11.27;6.60;;;7.30;99.90;;;;;;5016654;28;20955;-77
2022/04/04 08:16:39;;;;;;;7.63;5.40;;;7.60;99.90;;;;;;5017180;28;20469;-80
2022/04/04 08:19:06;;;;;;;7.77;5.83;;;7.80;99.90;;;;;;5018648;28;20482;-80
2022/04/04 08:21:34;;;;;;;10.77;5.47;;;7.80;99.90;;;;;;5018643;28;20460;-80
2022/04/04 08:24:00;;;;;;;8.70;6.57;;;8.00;99.90;;;;;;5018303;28;20827;-79
2022/04/04 08:26:29;;;;;;;6.90;5.10;;;8.30;99.90;;;;;;5018865;28;20490;-79
2022/04/04 08:29:00;;;;;;;10.87;6.20;;;8.70;99.90;;;;;;5019805;28;20494;-79
2022/04/04 08:31:27;;;;;;;11.87;5.43;;;8.70;99.90;;;;;;5017567;28;20516;-80
2022/04/04 08:33:53;;;;;;;7.93;5.17;;;8.70;99.90;;;;;;5018052;28;20544;-79
2022/04/04 08:36:20;;;;;;;9.90;5.37;;;8.50;99.90;;;;;;5000515;28;20462;-80
2022/04/04 08:38:47;;;;;;;9.03;5.53;;;8.30;99.90;;;;;;5012215;28;20478;-82
2022/04/04 08:41:14;;;;;;;7.70;4.83;;;8.60;99.90;;;;;;5018769;28;20461;-80
2022/04/04 08:43:43;;;;;;;12.23;4.90;;;8.60;99.90;;;;;;5015379;28;20823;-82
2022/04/04 08:46:14;;;;;;;9.97;5.87;;;8.40;99.90;;;;;;5015015;28;20495;-80
2022/04/04 08:48:42;;;;;;;13.73;5.10;;;8.40;99.90;;;;;;5015045;28;20475;-80
2022/04/04 08:51:09;;;;;;;10.00;5.40;;;8.50;99.90;;;;;;5016316;28;20458;-81
2022/04/04 08:53:37;;;;;;;6.93;5.17;;;8.30;99.90;;;;;;5020321;28;20971;-80
2022/04/04 08:56:05;;;;;;;6.40;4.50;;;8.00;99.90;;;;;;5019976;28;20447;-79
2022/04/04 08:58:32;;;;;;;9.23;5.90;;;7.90;99.90;;;;;;5024106;28;20476;-78
2022/04/04 09:01:00;;;;;;;14.93;6.70;;;8.00;99.90;;;;;;5018113;28;20454;-80
2022/04/04 09:03:30;;;;;;;15.47;5.37;;;8.00;99.90;;;;;;5016735;28;20541;-79
2022/04/04 09:05:58;;;;;;;5.93;4.60;;;7.90;99.90;;;;;;5015524;28;20531;-79
2022/04/04 09:08:26;;;;;;;11.00;5.43;;;8.00;99.90;;;;;;5015477;28;20490;-80
2022/04/04 09:10:56;;;;;;;5.73;4.67;;;8.10;99.90;;;;;;5024484;28;20453;-80
2022/04/04 09:13:24;;;;;;;6.47;4.10;;;8.10;99.90;;;;;;5016147;28;20536;-79
2022/04/04 09:15:56;;;;;;;10.90;5.90;;;7.80;99.90;;;;;;5015364;28;21300;-79
2022/04/04 09:18:42;;;;;;;10.67;5.30;;;7.70;99.90;;;;;;5015611;28;20454;-80
2022/04/04 09:21:11;;;;;;;7.73;5.73;;;7.70;99.90;;;;;;5013678;28;20457;-81
2022/04/04 09:23:55;;;;;;;8.03;4.90;;;7.60;99.90;;;;;;5016344;28;20532;-79
2022/04/04 09:26:39;;;;;;;8.10;5.03;;;7.50;99.90;;;;;;5024992;28;20519;-79
2022/04/04 09:29:23;;;;;;;13.90;5.70;;;7.40;99.90;;;;;;5031680;22;20509;-79
2022/04/04 09:31:59;;;;;;;10.00;5.00;;;7.20;99.90;;;;;;5024216;28;20540;-79
2022/04/04 09:34:27;;;;;;;21.30;6.43;;;7.30;99.90;;;;;;5018901;28;20457;-80
2022/04/04 09:36:54;;;;;;;10.60;5.90;;;7.30;99.90;;;;;;5030418;28;20462;-79
2022/04/04 09:39:21;;;;;;;8.13;5.80;;;7.40;99.90;;;;;;5019134;28;20559;-78
2022/04/04 09:41:51;;;;;;;9.67;5.63;;;7.40;99.90;;;;;;5017967;28;20467;-78
2022/04/04 09:44:25;;;;;;;8.93;5.83;;;7.20;99.90;;;;;;5018812;28;20487;-79
2022/04/04 09:46:52;;;;;;;8.70;5.90;;;7.20;99.90;;;;;;5016400;28;20475;-81
2022/04/04 09:49:21;;;;;;;8.60;5.63;;;7.10;99.90;;;;;;5015895;28;20484;-79
2022/04/04 09:51:51;;;;;;;8.67;5.47;;;7.00;99.90;;;;;;5017132;28;20454;-79
2022/04/04 09:54:23;;;;;;;6.20;4.60;;;6.90;99.90;;;;;;5016024;28;20456;-79
2022/04/04 09:56:50;;;;;;;9.43;5.87;;;6.80;99.90;;;;;;5015796;28;20458;-78
2022/04/04 09:59:18;;;;;;;6.60;4.90;;;6.70;99.90;;;;;;5014280;28;20478;-80
2022/04/04 10:01:46;;;;;;;9.93;7.13;;;6.80;99.90;;;;;;5020293;28;20469;-79
2022/04/04 10:04:14;;;;;;;7.97;5.17;;;6.90;99.90;;;;;;5023222;28;20457;-80
2022/04/04 10:06:42;;;;;;;9.13;5.83;;;7.10;99.90;;;;;;5019514;28;20476;-80
2022/04/04 10:09:10;;;;;;;7.27;6.10;;;7.30;99.90;;;;;;5014313;28;20484;-79
2022/04/04 10:11:40;;;;;;;10.00;5.67;;;7.40;99.90;;;;;;5020629;28;20448;-80
2022/04/04 10:14:07;;;;;;;8.87;6.07;;;7.30;99.90;;;;;;5009551;28;20457;-80
2022/04/04 10:16:37;;;;;;;6.90;5.30;;;7.30;99.90;;;;;;5012968;28;20453;-80
2022/04/04 10:19:06;;;;;;;8.47;5.73;;;7.20;99.90;;;;;;5013765;28;20914;-81
2022/04/04 10:21:33;;;;;;;6.70;4.93;;;7.10;99.90;;;;;;5012885;28;20512;-79
2022/04/04 10:24:02;;;;;;;11.20;5.90;;;7.10;99.90;;;;;;5011444;28;20461;-82
2022/04/04 10:26:34;;;;;;;9.90;6.33;;;7.10;99.90;;;;;;5010639;28;21090;-79
2022/04/04 10:29:14;;;;;;;8.07;5.47;;;7.20;99.90;;;;;;5010433;28;20477;-79
2022/04/04 10:31:44;;;;;;;8.83;7.80;;;7.20;99.90;;;;;;5008424;28;20450;-79
2022/04/04 10:34:13;;;;;;;15.93;7.43;;;7.00;99.90;;;;;;5007839;28;20445;-80
2022/04/04 10:36:55;;;;;;;8.83;7.23;;;6.90;99.90;;;;;;5009283;28;20548;-80
2022/04/04 10:39:33;;;;;;;11.00;6.53;;;6.80;99.90;;;;;;5016535;28;20485;-79
2022/04/04 10:42:01;;;;;;;8.77;6.67;;;6.80;99.90;;;;;;5016091;28;20899;-79
2022/04/04 10:44:46;;;;;;;13.70;7.80;;;6.70;99.90;;;;;;5016150;28;20449;-80
2022/04/04 10:47:20;;;;;;;9.37;8.17;;;6.50;99.90;;;;;;5015093;28;20504;-80
2022/04/04 10:49:47;;;;;;;9.67;7.87;;;6.40;99.90;;;;;;5015227;28;20472;-81
2022/04/04 10:52:16;;;;;;;9.20;7.97;;;6.20;99.90;;;;;;5004021;28;20473;-81
2022/04/04 10:54:43;;;;;;;9.17;7.27;;;6.20;99.90;;;;;;5002182;28;20472;-82
2022/04/04 10:57:18;;;;;;;10.43;9.30;;;6.20;99.90;;;;;;5007611;28;20973;-81
2022/04/04 10:59:46;;;;;;;13.23;10.87;;;6.20;99.90;;;;;;5006418;28;20479;-81
2022/04/04 11:02:15;;;;;;;13.67;8.83;;;6.10;99.90;;;;;;4999625;28;20461;-80
2022/04/04 11:07:41;;;;;;;11.67;9.53;;;5.80;99.90;;;;;;5005098;28;20487;-82
2022/04/04 11:10:09;;;;;;;13.10;10.70;;;5.70;99.90;;;;;;5007792;28;20480;-81
2022/04/04 11:13:08;;;;;;;22.33;10.53;;;5.70;99.90;;;;;;5021523;28;20438;-79
2022/04/04 11:15:41;;;;;;;13.43;9.67;;;5.80;99.90;;;;;;5006580;28;20549;-81
2022/04/04 11:18:08;;;;;;;13.17;10.27;;;5.70;99.90;;;;;;5007614;28;20455;-81
2022/04/04 11:20:36;;;;;;;14.33;11.23;;;5.60;99.90;;;;;;5019663;28;20451;-81
2022/04/04 11:23:08;;;;;;;18.13;11.37;;;5.70;99.90;;;;;;5011627;28;20455;-80
2022/04/04 11:25:37;;;;;;;12.63;10.73;;;5.60;99.90;;;;;;5006970;28;20510;-80
2022/04/04 11:28:06;;;;;;;16.40;11.03;;;5.60;99.90;;;;;;5005702;28;20549;-80
2022/04/04 11:30:35;;;;;;;19.57;12.20;;;5.50;99.90;;;;;;5002691;28;20515;-80
2022/04/04 11:33:02;;;;;;;15.70;11.67;;;5.50;99.90;;;;;;5002820;28;20456;-81
2022/04/04 11:35:31;;;;;;;15.30;13.10;;;5.40;99.90;;;;;;5003722;28;20461;-82
2022/04/04 11:38:00;;;;;;;12.60;11.20;;;5.50;99.90;;;;;;5000726;28;20515;-80
2022/04/04 11:40:33;;;;;;;14.83;11.13;;;5.40;99.90;;;;;;5000576;28;20479;-81
2022/04/04 11:43:02;;;;;;;14.40;10.27;;;5.40;99.90;;;;;;5004351;28;20448;-78
2022/04/04 11:45:35;;;;;;;16.13;11.30;;;5.40;99.90;;;;;;5001469;28;20881;-81
2022/04/04 11:48:06;;;;;;;14.27;10.70;;;5.30;99.90;;;;;;5001108;28;20444;-79
2022/04/04 11:50:50;;;;;;;13.70;12.23;;;5.30;99.90;;;;;;5000533;28;20474;-81
2022/04/04 11:53:22;;;;;;;16.63;12.77;;;5.40;99.90;;;;;;5011954;28;20454;-80
2022/04/04 11:55:49;;;;;;;17.07;12.40;;;5.40;99.90;;;;;;5004475;28;21067;-78
2022/04/04 11:58:20;;;;;;;18.47;12.83;;;5.40;99.90;;;;;;5001981;28;20445;-81
2022/04/04 12:00:54;;;;;;;13.10;11.03;;;5.50;99.90;;;;;;4998884;28;20529;-81
2022/04/04 12:03:22;;;;;;;17.07;11.83;;;5.50;99.90;;;;;;4999571;28;20495;-80
2022/04/04 12:05:50;;;;;;;16.27;10.80;;;5.50;99.90;;;;;;5002469;28;21034;-79
2022/04/04 12:08:18;;;;;;;15.37;11.83;;;5.50;99.90;;;;;;5002708;28;20539;-81
2022/04/04 12:10:48;;;;;;;16.17;12.50;;;5.50;99.90;;;;;;5000199;28;20466;-80
2022/04/04 12:13:17;;;;;;;13.00;10.03;;;5.50;99.90;;;;;;5002109;28;20456;-80
2022/04/04 12:15:45;;;;;;;14.30;11.47;;;5.40;99.90;;;;;;5008549;28;20506;-80
2022/04/04 12:18:20;;;;;;;14.43;10.60;;;5.40;99.90;;;;;;5007674;28;20453;-80
2022/04/04 12:20:48;;;;;;;15.83;12.20;;;5.40;99.90;;;;;;5000557;28;20457;-80
2022/04/04 12:26:07;;;;;;;13.40;10.60;;;5.40;99.90;;;;;;5001910;28;20442;-79
2022/04/04 12:28:36;;;;;;;13.27;10.97;;;5.40;99.90;;;;;;5002244;28;20477;-79
2022/04/04 12:31:11;;;;;;;13.03;10.87;;;5.30;99.90;;;;;;5005398;28;20450;-81
2022/04/04 12:33:40;;;;;;;13.10;10.10;;;5.30;99.90;;;;;;5001480;28;20992;-79
2022/04/04 12:36:07;;;;;;;17.10;10.40;;;5.20;99.90;;;;;;5003717;28;21284;-79
2022/04/04 12:38:36;;;;;;;12.40;10.30;;;5.20;99.90;;;;;;5006871;28;20497;-80
2022/04/04 12:41:14;;;;;;;13.13;10.63;;;5.10;99.90;;;;;;5002150;28;20458;-81
2022/04/04 12:43:43;;;;;;;14.77;11.50;;;5.10;99.90;;;;;;5005876;28;20514;-79
2022/04/04 12:46:23;;;;;;;14.83;11.07;;;5.10;99.90;;;;;;5010057;28;20444;-80
2022/04/04 12:49:07;;;;;;;12.67;10.83;;;5.20;99.90;;;;;;5009734;28;20607;-80
2022/04/04 12:51:34;;;;;;;13.03;11.20;;;5.20;99.90;;;;;;5017109;28;20455;-81
2022/04/04 12:54:01;;;;;;;11.67;10.47;;;5.20;99.90;;;;;;5013437;28;21042;-78
2022/04/04 12:56:31;;;;;;;13.83;10.70;;;5.20;99.90;;;;;;5016962;28;20462;-78
2022/04/04 12:59:06;;;;;;;15.30;11.57;;;5.10;99.90;;;;;;5007239;28;20485;-80
2022/04/04 13:01:34;;;;;;;67.43;33.23;;;5.10;99.90;;;;;;4998018;28;20450;-80
2022/04/04 13:04:08;;;;;;;16.47;13.03;;;5.10;99.90;;;;;;5005860;28;20458;-79
2022/04/04 13:06:35;;;;;;;12.70;11.40;;;5.10;99.90;;;;;;5012635;28;20553;-80
2022/04/04 13:09:03;;;;;;;16.63;12.53;;;5.10;99.90;;;;;;4999075;28;20531;-81